createdAt,value
2023-02-12T00:00:05.985Z,98739.88
2023-02-12T00:02:19.651Z,98744.28
2023-02-12T00:04:25.332Z,98744.97
2023-02-12T00:06:29.792Z,98741.44
2023-02-12T00:08:34.569Z,98749.03
2023-02-12T00:10:42.998Z,98753.03
2023-02-12T00:12:48.714Z,98753.00
2023-02-12T00:14:52.937Z,98752.19
2023-02-12T00:16:57.671Z,98747.56
2023-02-12T00:19:01.962Z,98735.47
2023-02-12T00:21:08.811Z,98738.91
2023-02-12T00:23:13.154Z,98742.06
2023-02-12T00:25:18.914Z,98740.38
2023-02-12T00:27:23.278Z,98735.50
2023-02-12T00:29:28.946Z,98731.84
2023-02-12T00:31:34.568Z,98729.31
2023-02-12T00:33:39.612Z,98728.63
2023-02-12T00:35:44.261Z,98721.22
2023-02-12T00:37:48.444Z,98716.84
2023-02-12T00:39:58.497Z,98713.06
2023-02-12T00:42:02.737Z,98713.78
2023-02-12T00:44:07.383Z,98710.66
2023-02-12T00:46:14.711Z,98712.25
2023-02-12T00:48:20.537Z,98709.53
2023-02-12T00:50:24.880Z,98704.94
2023-02-12T00:52:29.517Z,98702.97
2023-02-12T00:54:34.012Z,98709.22
2023-02-12T00:56:39.728Z,98707.63
2023-02-12T00:58:48.789Z,98708.44
2023-02-12T01:00:55.212Z,98708.69
2023-02-12T01:03:02.415Z,98701.81
2023-02-12T01:05:07.418Z,98712.25
2023-02-12T01:07:14.046Z,98715.06
2023-02-12T01:09:18.854Z,98710.78
2023-02-12T01:14:07.536Z,98718.47
2023-02-12T01:16:15.825Z,98715.38
2023-02-12T01:18:21.641Z,98712.00
2023-02-12T01:20:26.705Z,98718.19
2023-02-12T01:22:31.135Z,98719.75
2023-02-12T01:24:35.336Z,98724.66
2023-02-12T01:26:40.784Z,98720.06
2023-02-12T01:28:46.803Z,98721.22
2023-02-12T01:30:52.161Z,98719.09
2023-02-12T01:32:56.716Z,98726.84
2023-02-12T01:35:02.373Z,98724.31
2023-02-12T01:37:07.191Z,98726.19
2023-02-12T01:39:12.320Z,98725.81
2023-02-12T01:41:18.827Z,98724.75
2023-02-12T01:43:23.862Z,98723.81
2023-02-12T01:45:53.624Z,98726.44
2023-02-12T01:47:58.586Z,98722.03
2023-02-12T01:50:04.125Z,98718.31
2023-02-12T01:52:10.163Z,98720.50
2023-02-12T01:54:14.953Z,98708.69
2023-02-12T01:56:20.453Z,98704.94
2023-02-12T01:58:26.426Z,98713.28
2023-02-12T02:00:30.708Z,98711.72
2023-02-12T19:20:50.827Z,98567.53
2023-02-12T19:22:54.830Z,98572.63
2023-02-12T19:24:58.732Z,98570.13
2023-02-12T19:27:02.910Z,98577.13
2023-02-12T19:29:06.895Z,98566.72
2023-02-12T19:31:13.577Z,98571.00
2023-02-12T19:33:19.563Z,98576.19
2023-02-12T19:35:23.481Z,98571.00
2023-02-12T19:37:28.736Z,98568.38
2023-02-12T19:39:32.685Z,98565.78
2023-02-12T19:41:40.954Z,98566.59
2023-02-12T19:43:45.498Z,98569.31
2023-02-12T19:45:49.617Z,98572.88
2023-02-12T19:47:53.487Z,98572.75
2023-02-12T19:49:57.475Z,98571.00
2023-02-12T19:52:01.792Z,98573.59
2023-02-12T19:54:10.090Z,98576.19
2023-02-12T19:56:14.059Z,98584.19
2023-02-12T19:58:18.031Z,98583.06
2023-02-12T20:00:22.445Z,98587.44
2023-02-12T20:02:26.726Z,98579.72
2023-02-12T20:04:30.891Z,98584.09
2023-02-12T20:06:37.603Z,98573.69
2023-02-12T20:08:42.615Z,98580.53
2023-02-12T20:10:48.070Z,98570.25
2023-02-12T20:12:52.422Z,98574.75
2023-02-12T20:14:56.565Z,98572.88
2023-02-12T20:17:00.636Z,98562.56
2023-02-12T20:19:07.627Z,98563.38
2023-02-12T20:21:12.069Z,98562.56
2023-02-12T20:23:15.979Z,98560.88
2023-02-12T20:25:19.946Z,98555.66
2023-02-12T20:27:25.479Z,98567.84
2023-02-12T20:29:29.751Z,98565.25
2023-02-12T20:31:36.264Z,98566.94
2023-02-12T20:33:40.981Z,98573.06
2023-02-12T20:35:44.891Z,98572.97
2023-02-12T20:37:48.861Z,98591.28
2023-02-12T20:39:52.794Z,98582.63
2023-02-12T20:41:56.762Z,98580.84
2023-02-12T20:44:02.250Z,98597.31
2023-02-12T20:46:06.859Z,98596.56
2023-02-12T20:48:10.800Z,98589.63
2023-02-12T20:50:14.771Z,98590.53
2023-02-12T20:52:18.845Z,98592.09
2023-02-12T20:54:22.923Z,98589.63
2023-02-12T20:56:28.485Z,98585.34
2023-02-12T20:58:32.448Z,98587.94
2023-02-12T21:00:37.726Z,98589.63
2023-02-12T21:02:41.757Z,98595.84
2023-02-12T21:04:45.873Z,98597.53
2023-02-12T21:06:49.815Z,98593.25
2023-02-12T21:08:53.880Z,98592.41
2023-02-12T21:11:01.733Z,98596.47
2023-02-12T21:13:05.623Z,98596.56
2023-02-12T21:15:10.451Z,98598.44
2023-02-12T21:17:15.705Z,98598.56
2023-02-12T21:19:19.863Z,98594.41
2023-02-12T21:21:25.388Z,98599.50
2023-02-12T21:23:29.376Z,98598.34
2023-02-12T21:25:33.301Z,98599.16
2023-02-12T21:27:40.536Z,98601.03
2023-02-12T21:29:44.418Z,98596.69
2023-02-12T21:31:50.872Z,98603.66
2023-02-12T21:33:56.985Z,98599.16
2023-02-12T21:36:04.125Z,98603.66
2023-02-12T21:38:08.425Z,98609.59
2023-02-12T21:40:13.343Z,98608.66
2023-02-12T21:42:17.239Z,98600.84
2023-02-12T21:44:21.498Z,98603.56
2023-02-12T21:46:26.156Z,98603.56
2023-02-12T21:48:30.076Z,98609.72
2023-02-12T21:50:36.367Z,98608.03
2023-02-12T21:52:40.338Z,98605.44
2023-02-12T21:54:44.376Z,98613.97
2023-02-12T21:56:49.074Z,98612.31
2023-02-12T21:58:53.352Z,98613.13
2023-02-12T22:00:57.723Z,98621.66
2023-02-12T22:03:01.849Z,98620.22
2023-02-12T22:05:06.108Z,98626.25
2023-02-12T22:07:11.736Z,98615.84
2023-02-12T22:09:18.315Z,98617.50
2023-02-12T22:11:22.783Z,98616.66
2023-02-12T22:13:26.755Z,98628.03
2023-02-12T22:15:30.747Z,98625.50
2023-02-12T22:17:34.764Z,98628.97
2023-02-12T22:19:38.848Z,98633.31
2023-02-12T22:21:43.421Z,98640.06
2023-02-12T22:23:48.793Z,98637.38
2023-02-12T22:25:52.714Z,98641.75
2023-02-12T22:27:56.594Z,98642.81
2023-02-12T22:30:00.785Z,98643.63
2023-02-12T22:32:05.337Z,98643.53
2023-02-12T22:34:12.606Z,98643.63
2023-02-12T22:36:17.815Z,98650.63
2023-02-12T22:38:21.772Z,98647.06
2023-02-12T22:40:27.066Z,98652.47
2023-02-12T22:42:33.075Z,98656.44
2023-02-12T22:44:37.048Z,98661.63
2023-02-12T22:46:41.041Z,98661.03
2023-02-12T22:48:45.075Z,98657.59
2023-02-12T22:50:49.018Z,98656.56
2023-02-12T22:52:53.274Z,98657.38
2023-02-12T22:54:57.224Z,98655.59
2023-02-12T22:57:02.527Z,98653.94
2023-02-12T22:59:06.472Z,98661.03
2023-02-12T23:01:12.828Z,98660.81
2023-02-12T23:03:17.344Z,98657.59
2023-02-12T23:05:21.321Z,98659.16
2023-02-12T23:07:25.753Z,98659.25
2023-02-12T23:09:29.873Z,98656.56
2023-02-12T23:11:34.394Z,98665.19
2023-02-12T23:13:39.664Z,98662.66
2023-02-12T23:15:43.653Z,98668.00
2023-02-12T23:17:47.944Z,98659.47
2023-02-12T23:19:52.157Z,98673.38
2023-02-12T23:21:56.044Z,98675.06
2023-02-12T23:24:00.229Z,98671.31
2023-02-12T23:26:04.195Z,98674.75
2023-02-12T23:28:08.225Z,98670.28
2023-02-12T23:30:15.383Z,98676.63
2023-02-12T23:32:19.341Z,98668.91
2023-02-12T23:34:23.322Z,98665.59
2023-02-12T23:36:28.232Z,98670.47
2023-02-12T23:38:32.110Z,98666.22
2023-02-12T23:40:36.090Z,98666.41
2023-02-12T23:42:40.727Z,98666.84
2023-02-12T23:44:44.625Z,98661.03
2023-02-12T23:46:51.946Z,98666.41
2023-02-12T23:48:55.861Z,98670.88
2023-02-12T23:50:59.907Z,98673.47
2023-02-12T23:53:03.948Z,98673.59
2023-02-12T23:55:08.597Z,98663.94
2023-02-12T23:57:12.517Z,98669.13
2023-02-12T23:59:16.393Z,98664.75
